Kassel-Calden Airport

EDVK · Hesse, 德国

罗盘
风向 的 风向 260° Kassel-Calden Airport 9/27
风: 4 kt, 2 beaufort

4 kt

1 kt
改变
0 ft 1.000 2.000 3.000 4.000 5.000
未检测到零云
METAR EDVK 252050Z AUTO 26004KT 9999 // NCD 15/12 Q1018

METAR Kassel-Calden Airport - EDVK/KSF

Kassel-Calden Airport是,德国中的中型机场。 该机场位于纬度51,42080和经度9,39216。 该机场有一条跑道: 9/27. 本场的ICAO机场代码为EDVK。 该机场的IATA代码为KSF。 机场在Bremen FIR中。

该航空气象观测是针对Kassel-Calden Airport在2024年5月25日 22:50, 当地时间进行的。

机场观察

风向为260°,速度为4 kt。

可见度为10 km 或者更多。

有未检测到零云。 没有观察到天花板。

温度和风寒是15 °C。 露点为12 °C,相对湿度为82%。 海平面上的气压为1018 hPa (QNH)。

白天

今天,太阳从05:17升起,在21:21降落。 这适用于Kassel-Calden Airport,世界夏令时可能有所不同。 当地时间与世界标准时间之间的时差为+2 小时。 夏令时目前正在进行中。

公司介绍

在这个机场,你可以找到飞行学校 和 跳伞中心。 这个机场上的公司有light-wings Flugschule Kassel 和 Aero Fallschirmsport GmbH Kassel。

体会

到Vliegles.nl去找飞行课程,跳伞和其他飞行体验。 浏览页面,了解Kassel-Calden Airport附近所有可用的活动。 你也可以使用搜索功能来寻找你所在地附近的特定飞行课程、跳伞或其他飞行体验。

跑道

Id 标题 侧风 逆风 侧风 %
9/27 095°-275° 1 kt 4 kt 26 %

逆风成分最大的方向会被突出显示,并用于横风计算。 这并不一定意味着这个方向在使用。

乌云

- NCD 未检测到零云

温度 & 天气

温度 15 °C
露点 12 °C
相对湿度 82%
Kp-index 1 (0-9)

白天

日出
05:17 (5:47)
中午
13:19
日落
21:21

小工具

你想在你的网站上有一个关于Kassel-Calden Airport的当前航空天气(METAR)的小部件吗?

显示HTML代码
报告变更